createdAt,value
2023-12-30T00:01:38.527Z,1.85
2023-12-30T00:04:06.499Z,2.35
2023-12-30T00:06:35.164Z,2.17
2023-12-30T00:09:02.917Z,2.00
2023-12-30T00:11:31.105Z,1.70
2023-12-30T00:13:58.769Z,0.90
2023-12-30T00:16:29.137Z,2.00
2023-12-30T00:18:58.499Z,2.05
2023-12-30T00:21:26.133Z,2.55
2023-12-30T00:23:53.789Z,2.80
2023-12-30T00:26:22.511Z,2.35
2023-12-30T00:28:50.309Z,1.70
2023-12-30T00:31:25.630Z,2.97
2023-12-30T00:33:54.592Z,2.55
2023-12-30T00:36:23.717Z,2.17
2023-12-30T00:38:54.354Z,2.00
2023-12-30T00:41:22.095Z,2.33
2023-12-30T00:43:50.005Z,3.35
2023-12-30T00:46:20.332Z,3.03
2023-12-30T00:48:56.515Z,1.63
2023-12-30T00:51:27.413Z,3.13
2023-12-30T00:53:55.275Z,2.30
2023-12-30T00:56:22.857Z,2.70
2023-12-30T00:58:50.504Z,3.80
2023-12-30T01:01:18.305Z,4.07
2023-12-30T01:07:37.644Z,2.55
2023-12-30T01:10:06.271Z,1.20
2023-12-30T01:12:33.983Z,1.27
2023-12-30T01:15:01.798Z,1.15
2023-12-30T01:17:29.539Z,3.03
2023-12-30T01:19:57.228Z,1.75
2023-12-30T01:22:24.889Z,0.93
2023-12-30T01:24:53.949Z,1.10
2023-12-30T01:27:21.613Z,2.00
2023-12-30T01:29:49.274Z,1.67
2023-12-30T01:32:17.092Z,1.90
2023-12-30T01:34:44.961Z,1.98
2023-12-30T01:37:12.712Z,1.23
2023-12-30T01:39:40.369Z,1.40
2023-12-30T01:42:09.341Z,2.58
2023-12-30T01:44:37.397Z,1.17
2023-12-30T01:47:06.362Z,1.42
2023-12-30T01:49:34.088Z,1.42
2023-12-30T01:52:02.803Z,2.97
2023-12-30T01:54:31.773Z,1.55
2023-12-30T01:57:03.829Z,1.33
2023-12-30T01:59:33.901Z,1.23
2023-12-30T02:02:01.954Z,1.80
2023-12-30T02:04:30.546Z,1.15
2023-12-30T02:06:58.231Z,1.88
2023-12-30T02:09:26.484Z,2.45
2023-12-30T02:11:54.100Z,2.72
2023-12-30T02:14:26.303Z,1.77
2023-12-30T02:16:55.475Z,2.17
2023-12-30T02:19:23.334Z,1.52
2023-12-30T02:21:51.662Z,2.33
2023-12-30T02:24:21.504Z,2.65
2023-12-30T02:26:49.104Z,1.55
2023-12-30T02:29:16.773Z,2.63
2023-12-30T02:31:48.393Z,1.50
2023-12-30T02:34:17.300Z,3.90
2023-12-30T02:36:45.444Z,1.80
2023-12-30T02:39:13.956Z,1.60
2023-12-30T02:41:43.066Z,1.15
2023-12-30T02:44:10.702Z,1.83
2023-12-30T02:46:39.019Z,2.35
2023-12-30T02:49:06.928Z,1.75
2023-12-30T02:51:35.069Z,1.48
2023-12-30T02:54:02.690Z,1.45
2023-12-30T02:56:30.263Z,1.10
2023-12-30T02:59:00.348Z,3.60
2023-12-30T03:01:29.650Z,1.48
2023-12-30T03:03:59.761Z,1.73
2023-12-30T03:06:28.329Z,2.38
2023-12-30T03:08:56.422Z,2.88
2023-12-30T03:11:24.990Z,1.48
2023-12-30T03:13:52.627Z,2.20
2023-12-30T03:16:21.935Z,1.83
2023-12-30T03:18:49.851Z,1.90
2023-12-30T03:21:19.471Z,1.75
2023-12-30T03:23:47.496Z,2.08
2023-12-30T03:26:15.310Z,1.77
2023-12-30T03:28:44.136Z,2.42
2023-12-30T03:31:23.176Z,1.75
2023-12-30T03:33:50.850Z,1.80
2023-12-30T03:36:18.973Z,1.48
2023-12-30T03:38:47.980Z,1.75
2023-12-30T03:41:15.672Z,2.80
2023-12-30T03:43:43.332Z,1.63
2023-12-30T03:46:11.744Z,1.58
2023-12-30T03:48:40.789Z,2.47
2023-12-30T03:51:08.505Z,2.67
2023-12-30T03:53:36.107Z,1.65
2023-12-30T03:58:31.765Z,1.52
2023-12-30T04:00:58.587Z,1.73
2023-12-30T04:03:26.212Z,2.08
2023-12-30T04:08:22.588Z,2.25
2023-12-30T04:10:50.223Z,1.38
2023-12-30T04:13:18.196Z,1.88
2023-12-30T04:15:45.821Z,1.67
2023-12-30T04:18:13.503Z,1.33
2023-12-30T04:20:41.176Z,2.85
2023-12-30T04:23:10.103Z,3.30
2023-12-30T04:25:38.349Z,2.53
2023-12-30T04:28:06.259Z,1.33
2023-12-30T04:30:33.927Z,2.17
2023-12-30T04:33:01.907Z,1.80
2023-12-30T04:35:29.728Z,2.03
2023-12-30T04:37:57.306Z,2.63
2023-12-30T04:42:53.888Z,3.25
2023-12-30T04:45:21.837Z,3.03
2023-12-30T04:47:49.451Z,3.60
2023-12-30T04:50:17.159Z,1.75
2023-12-30T04:52:45.345Z,2.83
2023-12-30T04:55:13.098Z,2.15
2023-12-30T04:57:42.450Z,1.38
2023-12-30T05:00:10.969Z,4.50
2023-12-30T05:02:39.673Z,1.83
2023-12-30T05:05:07.899Z,2.15
2023-12-30T05:07:35.652Z,2.22
2023-12-30T05:10:03.566Z,1.67
2023-12-30T05:12:31.942Z,1.50
2023-12-30T05:15:00.877Z,3.55
2023-12-30T05:17:28.631Z,3.47
2023-12-30T05:19:56.392Z,1.60
2023-12-30T05:22:24.413Z,2.58
2023-12-30T05:24:52.103Z,4.25
2023-12-30T05:27:19.723Z,2.05
2023-12-30T05:29:47.294Z,1.45
2023-12-30T05:34:44.195Z,2.45
2023-12-30T05:37:12.098Z,2.90
2023-12-30T05:39:39.749Z,2.63
2023-12-30T05:42:07.491Z,1.83
2023-12-30T05:44:35.123Z,4.55
2023-12-30T05:47:03.655Z,3.35
2023-12-30T05:49:32.663Z,3.15
2023-12-30T05:52:00.337Z,2.55
2023-12-30T05:54:28.148Z,2.40
2023-12-30T05:56:55.988Z,3.10
2023-12-30T05:59:23.630Z,2.42
2023-12-30T06:01:53.870Z,2.10
2023-12-30T06:04:21.478Z,3.97
2023-12-30T06:06:50.501Z,2.55
2023-12-30T06:09:18.116Z,4.15
2023-12-30T06:11:45.693Z,2.22
2023-12-30T06:14:13.460Z,3.10
2023-12-30T06:16:41.143Z,2.53
2023-12-30T06:19:09.008Z,2.72
2023-12-30T06:21:37.182Z,4.03
2023-12-30T06:26:38.705Z,4.88
2023-12-30T06:29:06.618Z,3.03
2023-12-30T06:31:34.372Z,2.90
2023-12-30T06:34:02.068Z,2.25
2023-12-30T06:36:29.692Z,3.22
2023-12-30T06:38:57.407Z,2.58
2023-12-30T06:41:26.375Z,2.67
2023-12-30T06:43:53.942Z,2.03
2023-12-30T06:48:50.213Z,4.35
2023-12-30T06:51:18.050Z,1.83
2023-12-30T06:53:45.997Z,4.43
2023-12-30T06:56:13.606Z,3.25
2023-12-30T06:58:46.295Z,2.78
2023-12-30T07:01:14.449Z,2.50
2023-12-30T07:03:42.467Z,3.92
2023-12-30T07:06:10.245Z,3.25
2023-12-30T07:08:37.886Z,2.15
2023-12-30T07:11:06.071Z,2.13
2023-12-30T07:13:33.712Z,4.10
2023-12-30T07:16:02.798Z,2.45
2023-12-30T07:18:30.433Z,1.38
2023-12-30T07:20:58.133Z,2.22
2023-12-30T07:23:25.783Z,2.15
2023-12-30T07:25:53.513Z,2.10
2023-12-30T07:28:21.211Z,3.00
2023-12-30T07:30:48.982Z,1.98
2023-12-30T07:33:18.112Z,2.45
2023-12-30T07:35:45.782Z,3.42
2023-12-30T07:38:13.680Z,2.35
2023-12-30T07:40:41.505Z,3.88
2023-12-30T07:43:09.696Z,3.35
2023-12-30T07:45:37.426Z,2.90
2023-12-30T07:48:05.668Z,1.88
2023-12-30T07:50:34.687Z,2.58
2023-12-30T07:53:02.506Z,3.13
2023-12-30T07:55:30.412Z,2.28
2023-12-30T07:57:58.307Z,1.73
2023-12-30T08:00:25.971Z,1.55
2023-12-30T08:02:53.600Z,1.85
2023-12-30T08:05:21.268Z,1.77
2023-12-30T08:07:50.689Z,3.67
2023-12-30T08:10:19.952Z,1.88
2023-12-30T08:12:47.621Z,1.95
2023-12-30T08:15:15.330Z,2.15
2023-12-30T08:17:43.238Z,2.15
2023-12-30T08:20:12.298Z,1.70
2023-12-30T08:22:40.379Z,12.85
2023-12-30T08:25:10.486Z,4.20
2023-12-30T08:27:38.450Z,2.97
2023-12-30T08:30:07.775Z,1.58
2023-12-30T08:32:35.443Z,2.42
2023-12-30T08:35:04.284Z,1.30
2023-12-30T08:37:32.254Z,2.47
2023-12-30T08:39:59.922Z,2.15
2023-12-30T08:42:35.412Z,2.08
2023-12-30T08:45:03.112Z,1.73
2023-12-30T08:47:33.098Z,1.38
2023-12-30T08:50:00.969Z,1.70
2023-12-30T08:52:28.733Z,1.80
2023-12-30T08:54:57.327Z,2.22
2023-12-30T08:57:26.318Z,1.50
2023-12-30T08:59:55.621Z,2.92
2023-12-30T09:02:24.073Z,1.60
2023-12-30T09:04:51.772Z,1.45
2023-12-30T09:07:19.766Z,1.40
2023-12-30T09:09:47.535Z,1.65
2023-12-30T09:12:15.797Z,1.70
2023-12-30T09:14:43.412Z,2.20
2023-12-30T09:17:12.407Z,1.08
2023-12-30T09:19:40.301Z,1.55
2023-12-30T09:22:09.462Z,2.70
2023-12-30T09:24:37.794Z,2.42
2023-12-30T09:27:05.729Z,2.15
2023-12-30T09:29:33.376Z,1.33
2023-12-30T09:32:01.101Z,1.40
2023-12-30T09:34:38.868Z,1.85
2023-12-30T09:37:11.935Z,13.88
2023-12-30T09:39:39.766Z,10.48
2023-12-30T09:42:07.963Z,1.00
2023-12-30T09:44:36.014Z,1.67
2023-12-30T09:47:08.696Z,1.85
2023-12-30T09:49:38.665Z,0.95
2023-12-30T09:52:07.765Z,1.45
2023-12-30T09:54:45.340Z,0.95
2023-12-30T09:57:16.882Z,2.30
2023-12-30T09:59:45.385Z,1.33
2023-12-30T10:02:13.948Z,1.52
2023-12-30T10:04:43.067Z,1.05
2023-12-30T10:07:12.868Z,1.08
2023-12-30T10:09:40.622Z,1.05
2023-12-30T10:12:10.259Z,2.03
2023-12-30T10:14:37.959Z,1.02
2023-12-30T10:17:05.946Z,0.90
2023-12-30T10:19:33.721Z,0.63
2023-12-30T10:22:03.026Z,1.25
2023-12-30T10:24:30.854Z,1.13
2023-12-30T10:27:04.341Z,4.63
2023-12-30T10:29:39.608Z,2.40
2023-12-30T10:32:15.758Z,2.28
2023-12-30T10:34:43.431Z,1.38
2023-12-30T10:37:12.548Z,3.13
2023-12-30T10:39:43.687Z,0.98
2023-12-30T10:42:11.884Z,1.10
2023-12-30T10:44:39.535Z,2.28
2023-12-30T10:47:10.557Z,1.35
2023-12-30T10:49:42.032Z,1.27
2023-12-30T10:52:13.646Z,0.80
2023-12-30T10:54:49.016Z,1.55
2023-12-30T10:57:20.544Z,0.75
2023-12-30T10:59:52.037Z,0.73
2023-12-30T11:02:19.885Z,0.55
2023-12-30T11:04:50.825Z,0.88
2023-12-30T11:07:23.975Z,1.35
2023-12-30T11:17:48.852Z,1.38
2023-12-30T11:20:25.134Z,0.85
2023-12-30T11:22:54.066Z,1.30
2023-12-30T11:25:21.877Z,0.93
2023-12-30T11:27:50.712Z,0.98
2023-12-30T11:30:19.154Z,3.80
2023-12-30T11:32:48.190Z,0.80
2023-12-30T11:35:15.897Z,1.02
2023-12-30T11:37:46.681Z,2.70
2023-12-30T11:40:20.040Z,0.60
2023-12-30T11:42:48.688Z,1.48
2023-12-30T11:45:16.736Z,0.95
2023-12-30T11:47:48.371Z,1.20
2023-12-30T11:50:16.082Z,0.98
2023-12-30T11:52:47.964Z,1.42
2023-12-30T11:55:15.602Z,1.02
2023-12-30T11:57:43.356Z,1.95
2023-12-30T12:00:12.279Z,0.68
2023-12-30T12:02:40.184Z,1.00
2023-12-30T12:05:09.855Z,0.80
2023-12-30T12:07:37.641Z,0.68
2023-12-30T12:10:05.973Z,1.02
2023-12-30T12:12:37.893Z,1.90
2023-12-30T12:15:06.602Z,0.60
2023-12-30T12:17:34.433Z,1.08
2023-12-30T12:20:02.653Z,2.08
2023-12-30T12:22:32.135Z,1.58
2023-12-30T12:25:02.762Z,1.13
2023-12-30T12:27:32.301Z,1.90
2023-12-30T12:30:00.761Z,0.65
2023-12-30T12:32:30.215Z,1.45
2023-12-30T12:34:58.970Z,0.82
2023-12-30T12:37:26.892Z,3.20
2023-12-30T12:39:56.006Z,1.55
2023-12-30T12:42:30.379Z,0.70
2023-12-30T12:44:59.029Z,0.80
2023-12-30T12:47:26.854Z,1.48
2023-12-30T12:49:54.873Z,1.23
2023-12-30T12:52:22.620Z,1.20
2023-12-30T12:54:50.385Z,0.95
2023-12-30T12:57:19.371Z,1.33
2023-12-30T12:59:47.049Z,1.00
2023-12-30T13:02:15.229Z,2.80
2023-12-30T13:04:43.502Z,2.22
2023-12-30T13:07:12.524Z,1.60
2023-12-30T13:09:54.551Z,2.03
2023-12-30T13:12:23.685Z,1.58
2023-12-30T13:14:52.743Z,1.50
2023-12-30T13:17:21.026Z,0.90
2023-12-30T13:19:48.728Z,1.38
2023-12-30T13:22:16.415Z,0.90
2023-12-30T13:24:45.783Z,0.70
2023-12-30T13:27:13.611Z,1.55
2023-12-30T13:29:44.677Z,1.83
2023-12-30T13:32:13.867Z,1.25
2023-12-30T13:34:41.644Z,2.50
2023-12-30T13:37:11.359Z,1.23
2023-12-30T13:39:42.505Z,1.48
2023-12-30T13:42:10.734Z,1.55
2023-12-30T13:44:45.115Z,1.92
2023-12-30T13:47:38.962Z,0.85
2023-12-30T13:50:15.076Z,2.50
2023-12-30T13:52:43.993Z,2.13
2023-12-30T13:55:14.287Z,1.50
2023-12-30T13:57:43.451Z,7.15
2023-12-30T14:00:14.394Z,2.28
2023-12-30T14:02:44.831Z,1.45
2023-12-30T14:05:19.006Z,1.48
2023-12-30T14:07:47.432Z,1.45
2023-12-30T14:10:19.982Z,0.93
2023-12-30T14:12:49.932Z,1.27
2023-12-30T14:15:19.280Z,0.98
2023-12-30T14:17:48.834Z,2.40
2023-12-30T14:20:16.583Z,1.00
2023-12-30T14:22:44.335Z,1.30
2023-12-30T14:25:12.698Z,1.75
2023-12-30T14:27:39.942Z,1.00
2023-12-30T14:30:08.820Z,0.80
2023-12-30T14:32:36.918Z,1.33
2023-12-30T14:35:07.549Z,1.73
2023-12-30T14:37:35.681Z,1.30
2023-12-30T14:40:07.653Z,1.63
2023-12-30T14:42:35.803Z,1.25
2023-12-30T14:45:04.787Z,2.60
2023-12-30T14:47:33.633Z,1.45
2023-12-30T14:50:01.826Z,4.28
2023-12-30T14:52:30.836Z,2.50
2023-12-30T14:55:02.135Z,2.53
2023-12-30T14:57:30.624Z,1.75
2023-12-30T14:59:58.490Z,2.70
2023-12-30T15:02:27.373Z,1.80
2023-12-30T15:04:55.090Z,1.55
2023-12-30T15:07:22.941Z,1.40
2023-12-30T15:09:51.882Z,1.27
2023-12-30T15:12:22.823Z,3.10
2023-12-30T15:14:51.868Z,2.88
2023-12-30T15:17:19.545Z,2.08
2023-12-30T15:19:47.166Z,1.35
2023-12-30T15:22:15.602Z,1.67
2023-12-30T15:24:43.225Z,1.67
2023-12-30T15:27:12.230Z,1.58
2023-12-30T15:29:39.837Z,2.13
2023-12-30T15:32:07.972Z,1.02
2023-12-30T15:34:37.907Z,1.05
2023-12-30T15:37:05.692Z,3.05
2023-12-30T15:39:35.353Z,4.85
2023-12-30T15:42:03.176Z,1.95
2023-12-30T15:44:33.715Z,2.10
2023-12-30T15:47:01.567Z,2.78
2023-12-30T15:49:29.314Z,4.90
2023-12-30T15:51:56.966Z,1.98
2023-12-30T15:54:24.631Z,2.40
2023-12-30T15:56:53.211Z,4.65
2023-12-30T15:59:20.830Z,2.60
2023-12-30T16:01:49.837Z,3.13
2023-12-30T16:04:17.480Z,2.30
2023-12-30T16:06:45.745Z,4.75
2023-12-30T16:09:13.534Z,1.80
2023-12-30T16:11:41.306Z,2.10
2023-12-30T16:14:10.995Z,2.45
2023-12-30T16:16:40.515Z,1.60
2023-12-30T16:19:10.008Z,2.10
2023-12-30T16:21:37.717Z,2.92
2023-12-30T16:26:33.020Z,3.97
2023-12-30T16:29:00.686Z,2.80
2023-12-30T16:31:28.347Z,4.38
2023-12-30T16:33:56.112Z,6.60
2023-12-30T16:36:25.555Z,4.85
2023-12-30T16:38:55.874Z,4.45
2023-12-30T16:41:23.879Z,4.90
2023-12-30T16:43:51.834Z,3.05
2023-12-30T16:46:20.617Z,1.75
2023-12-30T16:48:48.474Z,1.75
2023-12-30T16:51:16.349Z,4.03
2023-12-30T16:53:45.378Z,3.70
2023-12-30T16:56:15.542Z,30.83
2023-12-30T16:58:43.258Z,20.10
2023-12-30T17:01:11.101Z,54.13
2023-12-30T17:03:38.887Z,54.28
2023-12-30T17:08:34.375Z,40.92
2023-12-30T17:13:35.406Z,67.78
2023-12-30T17:16:10.385Z,64.65
2023-12-30T17:18:38.320Z,21.42
2023-12-30T17:21:06.680Z,21.10
2023-12-30T17:23:34.268Z,19.70
2023-12-30T17:26:03.371Z,17.88
2023-12-30T17:28:31.072Z,17.23
2023-12-30T17:33:26.379Z,17.65
2023-12-30T17:35:54.661Z,13.10
2023-12-30T17:38:22.314Z,14.70
2023-12-30T17:40:50.025Z,13.82
2023-12-30T17:43:19.023Z,15.95
2023-12-30T17:45:46.702Z,14.55
2023-12-30T17:48:14.814Z,15.10
2023-12-30T17:50:44.055Z,14.77
2023-12-30T17:53:12.420Z,11.82
2023-12-30T17:55:41.803Z,14.52
2023-12-30T17:58:09.773Z,14.00
2023-12-30T18:00:38.801Z,8.05
2023-12-30T18:03:08.516Z,12.80
2023-12-30T18:05:36.925Z,8.43
2023-12-30T18:08:05.085Z,8.18
2023-12-30T18:10:32.739Z,7.03
2023-12-30T18:15:28.703Z,11.38
2023-12-30T18:17:58.029Z,8.48
2023-12-30T18:20:26.123Z,10.18
2023-12-30T18:22:53.816Z,6.93
2023-12-30T18:27:49.912Z,6.43
2023-12-30T18:30:17.777Z,7.93
2023-12-30T18:32:45.488Z,11.57
2023-12-30T18:35:14.884Z,12.30
2023-12-30T18:37:43.261Z,10.85
2023-12-30T18:40:12.090Z,9.90
2023-12-30T18:42:39.785Z,7.15
2023-12-30T18:45:08.438Z,9.18
2023-12-30T18:47:36.227Z,10.27
2023-12-30T18:50:04.734Z,8.88
2023-12-30T18:52:33.883Z,9.80
2023-12-30T18:55:01.638Z,13.63
2023-12-30T18:57:29.354Z,11.80
2023-12-30T19:02:24.707Z,20.90
2023-12-30T19:04:52.387Z,14.13
2023-12-30T19:09:49.112Z,14.73
2023-12-30T19:12:16.830Z,16.23
2023-12-30T19:17:11.879Z,13.18
2023-12-30T19:19:40.027Z,10.57
2023-12-30T19:22:08.433Z,7.25
2023-12-30T19:24:38.126Z,8.32
2023-12-30T19:27:07.361Z,6.88
2023-12-30T19:29:34.968Z,11.65
2023-12-30T19:32:02.602Z,9.93
2023-12-30T19:34:30.562Z,11.70
2023-12-30T19:36:58.646Z,11.13
2023-12-30T19:39:26.432Z,9.82
2023-12-30T19:41:54.167Z,13.30
2023-12-30T19:46:51.004Z,10.15
2023-12-30T19:49:20.772Z,14.40
2023-12-30T19:51:48.406Z,14.85
2023-12-30T19:54:16.035Z,16.08
2023-12-30T19:56:43.639Z,12.43
2023-12-30T19:59:11.229Z,9.85
2023-12-30T20:01:40.217Z,10.52
2023-12-30T20:04:07.967Z,9.35
2023-12-30T20:09:04.228Z,6.40
2023-12-30T20:13:59.356Z,7.10
2023-12-30T20:18:55.867Z,4.80
2023-12-30T20:21:23.593Z,10.32
2023-12-30T20:23:51.290Z,5.28
2023-12-30T20:28:46.448Z,8.55
2023-12-30T20:33:46.505Z,8.77
2023-12-30T20:36:21.844Z,8.35
2023-12-30T20:38:49.608Z,7.10
2023-12-30T20:43:45.602Z,8.85
2023-12-30T20:48:43.513Z,8.02
2023-12-30T20:51:11.205Z,7.43
2023-12-30T20:53:43.732Z,7.25
2023-12-30T20:56:11.375Z,5.55
2023-12-30T20:58:39.039Z,5.22
2023-12-30T21:01:07.055Z,4.75
2023-12-30T21:03:36.257Z,6.28
2023-12-30T21:06:04.628Z,6.82
2023-12-30T21:08:32.300Z,5.10
2023-12-30T21:11:01.580Z,5.03
2023-12-30T21:13:29.297Z,5.78
2023-12-30T21:18:24.862Z,6.85
2023-12-30T21:20:52.607Z,5.50
2023-12-30T21:25:50.536Z,6.38
2023-12-30T21:28:22.319Z,7.10
2023-12-30T21:30:50.787Z,4.28
2023-12-30T21:35:46.152Z,8.15
2023-12-30T21:38:13.859Z,8.10
2023-12-30T21:43:09.319Z,6.80
2023-12-30T21:48:07.953Z,7.85
2023-12-30T21:50:35.767Z,7.65
2023-12-30T21:55:31.150Z,8.93
2023-12-30T21:57:58.834Z,7.25
2023-12-30T22:00:26.431Z,7.03
2023-12-30T22:02:55.423Z,7.03
2023-12-30T22:05:23.124Z,8.57
2023-12-30T22:07:51.071Z,6.68
2023-12-30T22:10:18.761Z,6.50
2023-12-30T22:12:46.354Z,7.68
2023-12-30T22:15:14.254Z,6.13
2023-12-30T22:17:41.913Z,5.55
2023-12-30T22:20:11.813Z,5.63
2023-12-30T22:22:39.621Z,5.93
2023-12-30T22:25:07.608Z,7.70
2023-12-30T22:27:35.363Z,6.85
2023-12-30T22:32:31.525Z,5.65
2023-12-30T22:35:00.651Z,5.60
2023-12-30T22:37:29.719Z,7.85
2023-12-30T22:39:57.363Z,5.72
2023-12-30T22:42:24.935Z,6.60
2023-12-30T22:44:52.616Z,4.57
2023-12-30T22:47:21.005Z,5.32
2023-12-30T22:49:48.581Z,6.15
2023-12-30T22:54:45.564Z,3.88
2023-12-30T22:57:13.528Z,7.00
2023-12-30T22:59:41.150Z,5.03
2023-12-30T23:02:08.955Z,6.05
2023-12-30T23:07:04.101Z,4.07
2023-12-30T23:09:32.038Z,5.35
2023-12-30T23:14:28.427Z,3.17
2023-12-30T23:16:56.029Z,4.70
2023-12-30T23:19:23.668Z,4.40
2023-12-30T23:21:51.579Z,8.35
2023-12-30T23:24:19.172Z,8.13
2023-12-30T23:26:46.800Z,5.97
2023-12-30T23:29:15.905Z,5.72
2023-12-30T23:31:43.677Z,5.97
2023-12-30T23:36:39.626Z,3.35
2023-12-30T23:39:07.740Z,4.10
2023-12-30T23:41:35.349Z,4.25
2023-12-30T23:44:02.949Z,3.50
2023-12-30T23:46:31.972Z,3.30
2023-12-30T23:48:59.628Z,2.40
2023-12-30T23:51:27.234Z,3.65
2023-12-30T23:53:54.850Z,4.80
2023-12-30T23:56:23.218Z,3.08
2023-12-30T23:58:50.849Z,9.25
